Time;durP1;ratioP1;P1;durP2;ratioP2;P2;SDS_P1;SDS_P2;PMS_P1;PMS_P2;Temp;Humidity;BMP_temperature;BMP_pressure;BME280_temperature;BME280_humidity;BME280_pressure;Samples;Min_cycle;Max_cycle;Signal;HPM_P1;HPM_P2
2021/08/15 00:00:44;;;;;;;16.65;14.95;;;;;;;20.1;94.11035;95357.23;;;;
2021/08/15 00:01:44;;;;;;;16.65;14.95;;;;;;;20.1;94.11035;95357.23;;;;
2021/08/15 00:02:46;;;;;;;16.65;14.95;;;;;;;20.1;94.11035;95357.23;;;;
2021/08/15 00:03:48;;;;;;;19.4;16;;;;;;;20.08;94.71484;95355.35;;;;
2021/08/15 00:04:49;;;;;;;19.4;16;;;;;;;20.08;94.71484;95355.35;;;;
2021/08/15 00:05:49;;;;;;;19.4;16;;;;;;;20.08;94.71484;95355.35;;;;
2021/08/15 00:06:50;;;;;;;19.4;16;;;;;;;20.08;94.71484;95355.35;;;;
2021/08/15 00:07:53;;;;;;;19.4;16;;;;;;;20.08;94.71484;95355.35;;;;
2021/08/15 00:08:54;;;;;;;19.4;16;;;;;;;20.08;94.71484;95355.35;;;;
2021/08/15 00:09:54;;;;;;;19.4;16;;;;;;;20.08;94.71484;95355.35;;;;
2021/08/15 00:10:55;;;;;;;19.4;16;;;;;;;20.08;94.71484;95355.35;;;;
2021/08/15 00:11:56;;;;;;;19.4;16;;;;;;;20.08;94.71484;95355.35;;;;
2021/08/15 00:12:56;;;;;;;19.4;16;;;;;;;20.08;94.71484;95355.35;;;;
2021/08/15 00:13:57;;;;;;;17.55;15.2;;;;;;;19.98;95.38574;95340.95;;;;
2021/08/15 00:14:58;;;;;;;17.55;15.2;;;;;;;19.98;95.38574;95340.95;;;;
2021/08/15 00:15:58;;;;;;;17.55;15.2;;;;;;;19.98;95.38574;95340.95;;;;
2021/08/15 00:16:59;;;;;;;17.55;15.2;;;;;;;19.98;95.38574;95340.95;;;;
2021/08/15 00:18:00;;;;;;;17.55;15.2;;;;;;;19.98;95.38574;95340.95;;;;
2021/08/15 00:19:05;;;;;;;17.55;15.2;;;;;;;19.98;95.38574;95340.95;;;;
2021/08/15 00:20:05;;;;;;;17.55;15.2;;;;;;;19.98;95.38574;95340.95;;;;
2021/08/15 00:21:08;;;;;;;17.55;15.2;;;;;;;19.98;95.38574;95340.95;;;;
2021/08/15 00:22:09;;;;;;;17.55;15.2;;;;;;;19.98;95.38574;95340.95;;;;
2021/08/15 00:23:10;;;;;;;17.55;15.2;;;;;;;19.98;95.38574;95340.95;;;;
2021/08/15 00:24:11;;;;;;;17.55;15.2;;;;;;;19.98;95.38574;95340.95;;;;
2021/08/15 00:25:12;;;;;;;17;14.65;;;;;;;19.93;95.99512;95341.02;;;;
2021/08/15 00:26:15;;;;;;;17;14.65;;;;;;;19.93;95.99512;95341.02;;;;
2021/08/15 00:27:15;;;;;;;17;14.65;;;;;;;19.93;95.99512;95341.02;;;;
2021/08/15 00:28:16;;;;;;;17;14.65;;;;;;;19.93;95.99512;95341.02;;;;
2021/08/15 00:29:16;;;;;;;17;14.65;;;;;;;19.93;95.99512;95341.02;;;;
2021/08/15 00:30:17;;;;;;;17;14.65;;;;;;;19.93;95.99512;95341.02;;;;
2021/08/15 00:31:17;;;;;;;17;14.65;;;;;;;19.93;95.99512;95341.02;;;;
2021/08/15 00:32:18;;;;;;;17;14.65;;;;;;;19.93;95.99512;95341.02;;;;
2021/08/15 00:33:19;;;;;;;17;14.65;;;;;;;19.93;95.99512;95341.02;;;;
2021/08/15 00:34:19;;;;;;;17;14.65;;;;;;;19.93;95.99512;95341.02;;;;
2021/08/15 00:35:20;;;;;;;17.45;15.6;;;;;;;19.81;96.50098;95341.58;;;;
2021/08/15 00:36:20;;;;;;;17.45;15.6;;;;;;;19.81;96.50098;95341.58;;;;
2021/08/15 00:37:21;;;;;;;17.45;15.6;;;;;;;19.81;96.50098;95341.58;;;;
2021/08/15 00:38:22;;;;;;;17.45;15.6;;;;;;;19.81;96.50098;95341.58;;;;
2021/08/15 00:39:22;;;;;;;17.45;15.6;;;;;;;19.81;96.50098;95341.58;;;;
2021/08/15 00:40:23;;;;;;;17.45;15.6;;;;;;;19.81;96.50098;95341.58;;;;
2021/08/15 00:41:24;;;;;;;17.45;15.6;;;;;;;19.81;96.50098;95341.58;;;;
2021/08/15 00:42:24;;;;;;;17.45;15.6;;;;;;;19.81;96.50098;95341.58;;;;
2021/08/15 00:43:27;;;;;;;17.45;15.6;;;;;;;19.81;96.50098;95341.58;;;;
2021/08/15 00:44:28;;;;;;;17.45;15.6;;;;;;;19.81;96.50098;95341.58;;;;
2021/08/15 00:45:28;;;;;;;17.45;15.6;;;;;;;19.81;96.50098;95341.58;;;;
2021/08/15 00:46:29;;;;;;;19.2;16.35;;;;;;;19.73;97.04883;95341.25;;;;
2021/08/15 00:47:30;;;;;;;19.2;16.35;;;;;;;19.73;97.04883;95341.25;;;;
2021/08/15 00:48:31;;;;;;;19.2;16.35;;;;;;;19.73;97.04883;95341.25;;;;
2021/08/15 00:49:31;;;;;;;19.2;16.35;;;;;;;19.73;97.04883;95341.25;;;;
2021/08/15 00:50:32;;;;;;;19.2;16.35;;;;;;;19.73;97.04883;95341.25;;;;
2021/08/15 00:51:32;;;;;;;19.2;16.35;;;;;;;19.73;97.04883;95341.25;;;;
2021/08/15 00:52:33;;;;;;;19.2;16.35;;;;;;;19.73;97.04883;95341.25;;;;
2021/08/15 00:53:34;;;;;;;19.2;16.35;;;;;;;19.73;97.04883;95341.25;;;;
2021/08/15 00:54:36;;;;;;;19.2;16.35;;;;;;;19.73;97.04883;95341.25;;;;
2021/08/15 00:55:36;;;;;;;19.2;16.35;;;;;;;19.73;97.04883;95341.25;;;;
2021/08/15 00:56:37;;;;;;;18.5;15.7;;;;;;;19.57;97.59961;95330.62;;;;
2021/08/15 00:57:38;;;;;;;18.5;15.7;;;;;;;19.57;97.59961;95330.62;;;;
2021/08/15 00:58:41;;;;;;;18.5;15.7;;;;;;;19.57;97.59961;95330.62;;;;
2021/08/15 00:59:43;;;;;;;18.5;15.7;;;;;;;19.57;97.59961;95330.62;;;;
2021/08/15 01:00:43;;;;;;;18.5;15.7;;;;;;;19.57;97.59961;95330.62;;;;
2021/08/15 01:01:44;;;;;;;18.5;15.7;;;;;;;19.57;97.59961;95330.62;;;;
2021/08/15 01:02:44;;;;;;;18.5;15.7;;;;;;;19.57;97.59961;95330.62;;;;
2021/08/15 01:03:45;;;;;;;18.5;15.7;;;;;;;19.57;97.59961;95330.62;;;;
2021/08/15 01:04:46;;;;;;;18.5;15.7;;;;;;;19.57;97.59961;95330.62;;;;
2021/08/15 01:05:48;;;;;;;18.5;15.7;;;;;;;19.57;97.59961;95330.62;;;;
2021/08/15 01:06:48;;;;;;;18.5;15.7;;;;;;;19.57;97.59961;95330.62;;;;
2021/08/15 01:07:49;;;;;;;18.45;15.9;;;;;;;19.48;98.14551;95327.29;;;;
2021/08/15 01:08:50;;;;;;;18.45;15.9;;;;;;;19.48;98.14551;95327.29;;;;
2021/08/15 01:09:51;;;;;;;18.45;15.9;;;;;;;19.48;98.14551;95327.29;;;;
2021/08/15 01:10:51;;;;;;;18.45;15.9;;;;;;;19.48;98.14551;95327.29;;;;
2021/08/15 01:11:52;;;;;;;18.45;15.9;;;;;;;19.48;98.14551;95327.29;;;;
2021/08/15 01:12:52;;;;;;;18.45;15.9;;;;;;;19.48;98.14551;95327.29;;;;
2021/08/15 01:13:53;;;;;;;18.45;15.9;;;;;;;19.48;98.14551;95327.29;;;;
2021/08/15 01:14:53;;;;;;;18.45;15.9;;;;;;;19.48;98.14551;95327.29;;;;
2021/08/15 01:15:55;;;;;;;18.45;15.9;;;;;;;19.48;98.14551;95327.29;;;;
2021/08/15 01:16:56;;;;;;;18.45;15.9;;;;;;;19.48;98.14551;95327.29;;;;
2021/08/15 01:17:57;;;;;;;18.05;16.2;;;;;;;19.33;98.69531;95315.66;;;;
2021/08/15 01:18:57;;;;;;;18.05;16.2;;;;;;;19.33;98.69531;95315.66;;;;
2021/08/15 01:19:58;;;;;;;18.05;16.2;;;;;;;19.33;98.69531;95315.66;;;;
2021/08/15 01:20:58;;;;;;;18.05;16.2;;;;;;;19.33;98.69531;95315.66;;;;
2021/08/15 01:22:00;;;;;;;18.05;16.2;;;;;;;19.33;98.69531;95315.66;;;;
2021/08/15 01:23:01;;;;;;;18.05;16.2;;;;;;;19.33;98.69531;95315.66;;;;
2021/08/15 01:24:01;;;;;;;18.05;16.2;;;;;;;19.33;98.69531;95315.66;;;;
2021/08/15 01:25:05;;;;;;;18.05;16.2;;;;;;;19.33;98.69531;95315.66;;;;
2021/08/15 01:26:07;;;;;;;18.05;16.2;;;;;;;19.33;98.69531;95315.66;;;;
2021/08/15 01:27:10;;;;;;;18.05;16.2;;;;;;;19.33;98.69531;95315.66;;;;
2021/08/15 01:28:12;;;;;;;18.05;16.2;;;;;;;19.33;98.69531;95315.66;;;;
2021/08/15 01:29:15;;;;;;;18.65;16.85;;;;;;;19.24;99.25098;95315.45;;;;
2021/08/15 01:30:15;;;;;;;18.65;16.85;;;;;;;19.24;99.25098;95315.45;;;;
2021/08/15 01:31:16;;;;;;;18.65;16.85;;;;;;;19.24;99.25098;95315.45;;;;
2021/08/15 01:32:17;;;;;;;18.65;16.85;;;;;;;19.24;99.25098;95315.45;;;;
2021/08/15 01:33:18;;;;;;;18.65;16.85;;;;;;;19.24;99.25098;95315.45;;;;
2021/08/15 01:34:28;;;;;;;18.65;16.85;;;;;;;19.24;99.25098;95315.45;;;;
2021/08/15 01:35:28;;;;;;;18.65;16.85;;;;;;;19.24;99.25098;95315.45;;;;
2021/08/15 01:36:29;;;;;;;18.65;16.85;;;;;;;19.24;99.25098;95315.45;;;;
2021/08/15 01:37:30;;;;;;;18.65;16.85;;;;;;;19.24;99.25098;95315.45;;;;
2021/08/15 01:38:30;;;;;;;18.65;16.85;;;;;;;19.24;99.25098;95315.45;;;;
2021/08/15 01:39:33;;;;;;;21.7;17.5;;;;;;;19.11;99.89355;95315.7;;;;
2021/08/15 01:40:34;;;;;;;21.7;17.5;;;;;;;19.11;99.89355;95315.7;;;;
2021/08/15 01:41:34;;;;;;;21.7;17.5;;;;;;;19.11;99.89355;95315.7;;;;
2021/08/15 01:42:35;;;;;;;21.7;17.5;;;;;;;19.11;99.89355;95315.7;;;;
2021/08/15 01:43:35;;;;;;;21.7;17.5;;;;;;;19.11;99.89355;95315.7;;;;
2021/08/15 01:44:53;;;;;;;21.7;17.5;;;;;;;19.11;99.89355;95315.7;;;;
2021/08/15 01:45:54;;;;;;;21.7;17.5;;;;;;;19.11;99.89355;95315.7;;;;
2021/08/15 01:46:54;;;;;;;21.7;17.5;;;;;;;19.11;99.89355;95315.7;;;;
2021/08/15 01:47:55;;;;;;;21.7;17.5;;;;;;;19.11;99.89355;95315.7;;;;
2021/08/15 01:48:55;;;;;;;21.7;17.5;;;;;;;19.11;99.89355;95315.7;;;;
2021/08/15 01:49:57;;;;;;;20.1;17.35;;;;;;;18.98;100;95312.13;;;;
2021/08/15 01:50:58;;;;;;;20.1;17.35;;;;;;;18.98;100;95312.13;;;;
2021/08/15 01:51:58;;;;;;;20.1;17.35;;;;;;;18.98;100;95312.13;;;;
2021/08/15 01:52:59;;;;;;;20.1;17.35;;;;;;;18.98;100;95312.13;;;;
2021/08/15 01:54:03;;;;;;;20.1;17.35;;;;;;;18.98;100;95312.13;;;;
2021/08/15 01:55:04;;;;;;;20.1;17.35;;;;;;;18.98;100;95312.13;;;;
2021/08/15 01:56:05;;;;;;;20.1;17.35;;;;;;;18.98;100;95312.13;;;;
2021/08/15 01:57:06;;;;;;;20.1;17.35;;;;;;;18.98;100;95312.13;;;;
2021/08/15 01:58:06;;;;;;;20.1;17.35;;;;;;;18.98;100;95312.13;;;;
2021/08/15 01:59:08;;;;;;;20.1;17.35;;;;;;;18.98;100;95312.13;;;;
2021/08/15 02:00:09;;;;;;;20.1;17.35;;;;;;;18.98;100;95312.13;;;;
2021/08/15 02:01:11;;;;;;;20.6;18.1;;;;;;;18.89;100;95314.39;;;;
2021/08/15 02:02:14;;;;;;;20.6;18.1;;;;;;;18.89;100;95314.39;;;;
2021/08/15 02:03:14;;;;;;;20.6;18.1;;;;;;;18.89;100;95314.39;;;;
2021/08/15 02:04:17;;;;;;;20.6;18.1;;;;;;;18.89;100;95314.39;;;;
2021/08/15 02:05:18;;;;;;;20.6;18.1;;;;;;;18.89;100;95314.39;;;;
2021/08/15 02:06:19;;;;;;;20.6;18.1;;;;;;;18.89;100;95314.39;;;;
2021/08/15 02:07:20;;;;;;;20.6;18.1;;;;;;;18.89;100;95314.39;;;;
2021/08/15 02:08:20;;;;;;;20.6;18.1;;;;;;;18.89;100;95314.39;;;;
2021/08/15 02:09:21;;;;;;;20.6;18.1;;;;;;;18.89;100;95314.39;;;;
2021/08/15 02:10:22;;;;;;;20.6;18.1;;;;;;;18.89;100;95314.39;;;;
2021/08/15 02:11:24;;;;;;;21.3;17.95;;;;;;;18.81;100;95311.88;;;;
2021/08/15 02:12:25;;;;;;;21.3;17.95;;;;;;;18.81;100;95311.88;;;;
2021/08/15 02:13:26;;;;;;;21.3;17.95;;;;;;;18.81;100;95311.88;;;;
2021/08/15 02:14:27;;;;;;;21.3;17.95;;;;;;;18.81;100;95311.88;;;;
2021/08/15 02:15:27;;;;;;;21.3;17.95;;;;;;;18.81;100;95311.88;;;;
2021/08/15 02:16:29;;;;;;;21.3;17.95;;;;;;;18.81;100;95311.88;;;;
2021/08/15 02:17:29;;;;;;;21.3;17.95;;;;;;;18.81;100;95311.88;;;;
2021/08/15 02:18:30;;;;;;;21.3;17.95;;;;;;;18.81;100;95311.88;;;;
2021/08/15 02:19:30;;;;;;;21.3;17.95;;;;;;;18.81;100;95311.88;;;;
2021/08/15 02:20:31;;;;;;;21.3;17.95;;;;;;;18.81;100;95311.88;;;;
2021/08/15 02:21:33;;;;;;;21.3;17.95;;;;;;;18.81;100;95311.88;;;;
2021/08/15 02:22:34;;;;;;;19.6;17.5;;;;;;;18.82;100;95311.58;;;;
2021/08/15 02:23:34;;;;;;;19.6;17.5;;;;;;;18.82;100;95311.58;;;;
2021/08/15 02:24:35;;;;;;;19.6;17.5;;;;;;;18.82;100;95311.58;;;;
2021/08/15 02:25:36;;;;;;;19.6;17.5;;;;;;;18.82;100;95311.58;;;;
2021/08/15 02:26:36;;;;;;;19.6;17.5;;;;;;;18.82;100;95311.58;;;;
2021/08/15 02:27:37;;;;;;;19.6;17.5;;;;;;;18.82;100;95311.58;;;;
2021/08/15 02:28:39;;;;;;;19.6;17.5;;;;;;;18.82;100;95311.58;;;;
2021/08/15 02:29:40;;;;;;;19.6;17.5;;;;;;;18.82;100;95311.58;;;;
2021/08/15 02:30:40;;;;;;;19.6;17.5;;;;;;;18.82;100;95311.58;;;;
2021/08/15 02:31:41;;;;;;;19.6;17.5;;;;;;;18.82;100;95311.58;;;;
2021/08/15 02:32:41;;;;;;;20.05;17.95;;;;;;;18.75;100;95317.94;;;;
2021/08/15 02:33:43;;;;;;;20.05;17.95;;;;;;;18.75;100;95317.94;;;;
2021/08/15 02:34:43;;;;;;;20.05;17.95;;;;;;;18.75;100;95317.94;;;;
2021/08/15 02:35:44;;;;;;;20.05;17.95;;;;;;;18.75;100;95317.94;;;;
2021/08/15 02:36:45;;;;;;;20.05;17.95;;;;;;;18.75;100;95317.94;;;;
2021/08/15 02:37:45;;;;;;;20.05;17.95;;;;;;;18.75;100;95317.94;;;;
2021/08/15 02:38:48;;;;;;;20.05;17.95;;;;;;;18.75;100;95317.94;;;;
2021/08/15 02:39:49;;;;;;;20.05;17.95;;;;;;;18.75;100;95317.94;;;;
2021/08/15 02:40:49;;;;;;;20.05;17.95;;;;;;;18.75;100;95317.94;;;;
2021/08/15 02:41:51;;;;;;;20.05;17.95;;;;;;;18.75;100;95317.94;;;;
2021/08/15 02:42:51;;;;;;;20.05;17.95;;;;;;;18.75;100;95317.94;;;;
2021/08/15 02:43:54;;;;;;;20.45;18.25;;;;;;;18.68;100;95311.56;;;;
2021/08/15 02:44:54;;;;;;;20.45;18.25;;;;;;;18.68;100;95311.56;;;;
2021/08/15 02:45:55;;;;;;;20.45;18.25;;;;;;;18.68;100;95311.56;;;;
2021/08/15 02:46:56;;;;;;;20.45;18.25;;;;;;;18.68;100;95311.56;;;;
2021/08/15 02:47:57;;;;;;;20.45;18.25;;;;;;;18.68;100;95311.56;;;;
2021/08/15 02:48:57;;;;;;;20.45;18.25;;;;;;;18.68;100;95311.56;;;;
2021/08/15 02:49:58;;;;;;;20.45;18.25;;;;;;;18.68;100;95311.56;;;;
2021/08/15 02:50:58;;;;;;;20.45;18.25;;;;;;;18.68;100;95311.56;;;;
2021/08/15 02:51:59;;;;;;;20.45;18.25;;;;;;;18.68;100;95311.56;;;;
2021/08/15 02:52:59;;;;;;;20.45;18.25;;;;;;;18.68;100;95311.56;;;;
2021/08/15 02:54:00;;;;;;;20.65;18.45;;;;;;;18.59;100;95310.96;;;;
2021/08/15 02:55:01;;;;;;;20.65;18.45;;;;;;;18.59;100;95310.96;;;;
2021/08/15 02:56:02;;;;;;;20.65;18.45;;;;;;;18.59;100;95310.96;;;;
2021/08/15 02:57:03;;;;;;;20.65;18.45;;;;;;;18.59;100;95310.96;;;;
2021/08/15 02:58:05;;;;;;;20.65;18.45;;;;;;;18.59;100;95310.96;;;;
2021/08/15 02:59:05;;;;;;;20.65;18.45;;;;;;;18.59;100;95310.96;;;;
2021/08/15 03:00:06;;;;;;;20.65;18.45;;;;;;;18.59;100;95310.96;;;;
2021/08/15 03:01:09;;;;;;;20.65;18.45;;;;;;;18.59;100;95310.96;;;;
2021/08/15 03:02:10;;;;;;;20.65;18.45;;;;;;;18.59;100;95310.96;;;;
2021/08/15 03:03:13;;;;;;;20.65;18.45;;;;;;;18.59;100;95310.96;;;;
2021/08/15 03:04:13;;;;;;;20.65;18.45;;;;;;;18.59;100;95310.96;;;;
2021/08/15 03:05:14;;;;;;;19.15;17.15;;;;;;;18.52;100;95304.04;;;;
2021/08/15 03:06:14;;;;;;;19.15;17.15;;;;;;;18.52;100;95304.04;;;;
2021/08/15 03:07:15;;;;;;;19.15;17.15;;;;;;;18.52;100;95304.04;;;;
2021/08/15 03:08:17;;;;;;;19.15;17.15;;;;;;;18.52;100;95304.04;;;;
2021/08/15 03:09:18;;;;;;;19.15;17.15;;;;;;;18.52;100;95304.04;;;;
2021/08/15 03:10:18;;;;;;;19.15;17.15;;;;;;;18.52;100;95304.04;;;;
2021/08/15 03:11:19;;;;;;;19.15;17.15;;;;;;;18.52;100;95304.04;;;;
2021/08/15 03:12:19;;;;;;;19.15;17.15;;;;;;;18.52;100;95304.04;;;;
2021/08/15 03:13:20;;;;;;;19.15;17.15;;;;;;;18.52;100;95304.04;;;;
2021/08/15 03:14:20;;;;;;;19.15;17.15;;;;;;;18.52;100;95304.04;;;;
2021/08/15 03:15:21;;;;;;;19.7;17.55;;;;;;;18.53;100;95299.39;;;;
2021/08/15 03:16:21;;;;;;;19.7;17.55;;;;;;;18.53;100;95299.39;;;;
2021/08/15 03:17:22;;;;;;;19.7;17.55;;;;;;;18.53;100;95299.39;;;;
2021/08/15 03:18:23;;;;;;;19.7;17.55;;;;;;;18.53;100;95299.39;;;;
2021/08/15 03:19:23;;;;;;;19.7;17.55;;;;;;;18.53;100;95299.39;;;;
2021/08/15 03:20:24;;;;;;;19.7;17.55;;;;;;;18.53;100;95299.39;;;;
2021/08/15 03:21:29;;;;;;;19.7;17.55;;;;;;;18.53;100;95299.39;;;;
2021/08/15 03:22:30;;;;;;;19.7;17.55;;;;;;;18.53;100;95299.39;;;;
2021/08/15 03:23:30;;;;;;;19.7;17.55;;;;;;;18.53;100;95299.39;;;;
2021/08/15 03:24:31;;;;;;;19.7;17.55;;;;;;;18.53;100;95299.39;;;;
2021/08/15 03:25:32;;;;;;;19.7;17.55;;;;;;;18.53;100;95299.39;;;;
2021/08/15 03:26:32;;;;;;;20;17.7;;;;;;;18.5;100;95287.51;;;;
2021/08/15 03:27:33;;;;;;;20;17.7;;;;;;;18.5;100;95287.51;;;;
2021/08/15 03:28:34;;;;;;;20;17.7;;;;;;;18.5;100;95287.51;;;;
2021/08/15 03:29:34;;;;;;;20;17.7;;;;;;;18.5;100;95287.51;;;;
2021/08/15 03:30:35;;;;;;;20;17.7;;;;;;;18.5;100;95287.51;;;;
2021/08/15 03:31:35;;;;;;;20;17.7;;;;;;;18.5;100;95287.51;;;;
2021/08/15 03:32:36;;;;;;;20;17.7;;;;;;;18.5;100;95287.51;;;;
2021/08/15 03:33:36;;;;;;;20;17.7;;;;;;;18.5;100;95287.51;;;;
2021/08/15 03:34:37;;;;;;;20;17.7;;;;;;;18.5;100;95287.51;;;;
2021/08/15 03:35:38;;;;;;;20;17.7;;;;;;;18.5;100;95287.51;;;;
2021/08/15 03:36:38;;;;;;;20.45;18.25;;;;;;;18.48;100;95288.47;;;;
2021/08/15 03:37:40;;;;;;;20.45;18.25;;;;;;;18.48;100;95288.47;;;;
2021/08/15 03:38:40;;;;;;;20.45;18.25;;;;;;;18.48;100;95288.47;;;;
2021/08/15 03:39:41;;;;;;;20.45;18.25;;;;;;;18.48;100;95288.47;;;;
2021/08/15 03:40:41;;;;;;;20.45;18.25;;;;;;;18.48;100;95288.47;;;;
2021/08/15 03:41:42;;;;;;;20.45;18.25;;;;;;;18.48;100;95288.47;;;;
2021/08/15 03:42:43;;;;;;;20.45;18.25;;;;;;;18.48;100;95288.47;;;;
2021/08/15 03:43:43;;;;;;;20.45;18.25;;;;;;;18.48;100;95288.47;;;;
2021/08/15 03:44:44;;;;;;;20.45;18.25;;;;;;;18.48;100;95288.47;;;;
2021/08/15 03:45:44;;;;;;;20.45;18.25;;;;;;;18.48;100;95288.47;;;;
2021/08/15 03:46:45;;;;;;;20.45;18.25;;;;;;;18.48;100;95288.47;;;;
2021/08/15 03:47:45;;;;;;;19.95;17.85;;;;;;;18.41;100;95282.48;;;;
2021/08/15 03:48:46;;;;;;;19.95;17.85;;;;;;;18.41;100;95282.48;;;;
2021/08/15 03:49:46;;;;;;;19.95;17.85;;;;;;;18.41;100;95282.48;;;;
2021/08/15 03:50:47;;;;;;;19.95;17.85;;;;;;;18.41;100;95282.48;;;;
2021/08/15 03:51:48;;;;;;;19.95;17.85;;;;;;;18.41;100;95282.48;;;;
2021/08/15 03:52:48;;;;;;;19.95;17.85;;;;;;;18.41;100;95282.48;;;;
2021/08/15 03:53:49;;;;;;;19.95;17.85;;;;;;;18.41;100;95282.48;;;;
2021/08/15 03:54:49;;;;;;;19.95;17.85;;;;;;;18.41;100;95282.48;;;;
2021/08/15 03:55:50;;;;;;;19.95;17.85;;;;;;;18.41;100;95282.48;;;;
2021/08/15 03:56:50;;;;;;;19.95;17.85;;;;;;;18.41;100;95282.48;;;;
2021/08/15 03:57:51;;;;;;;19.95;17.85;;;;;;;18.41;100;95282.48;;;;
2021/08/15 03:58:51;;;;;;;21.25;19.05;;;;;;;18.4;100;95288.51;;;;
2021/08/15 03:59:53;;;;;;;21.25;19.05;;;;;;;18.4;100;95288.51;;;;
2021/08/15 04:00:53;;;;;;;21.25;19.05;;;;;;;18.4;100;95288.51;;;;
2021/08/15 04:01:54;;;;;;;21.25;19.05;;;;;;;18.4;100;95288.51;;;;
2021/08/15 04:02:55;;;;;;;21.25;19.05;;;;;;;18.4;100;95288.51;;;;
2021/08/15 04:03:55;;;;;;;21.25;19.05;;;;;;;18.4;100;95288.51;;;;
2021/08/15 04:04:56;;;;;;;21.25;19.05;;;;;;;18.4;100;95288.51;;;;
2021/08/15 04:05:59;;;;;;;21.25;19.05;;;;;;;18.4;100;95288.51;;;;
2021/08/15 04:07:00;;;;;;;21.25;19.05;;;;;;;18.4;100;95288.51;;;;
2021/08/15 04:08:00;;;;;;;21.25;19.05;;;;;;;18.4;100;95288.51;;;;
2021/08/15 04:09:01;;;;;;;21.3;19;;;;;;;18.46;100;95292.46;;;;
2021/08/15 04:10:03;;;;;;;21.3;19;;;;;;;18.46;100;95292.46;;;;
2021/08/15 04:11:04;;;;;;;21.3;19;;;;;;;18.46;100;95292.46;;;;
2021/08/15 04:12:05;;;;;;;21.3;19;;;;;;;18.46;100;95292.46;;;;
2021/08/15 04:13:06;;;;;;;21.3;19;;;;;;;18.46;100;95292.46;;;;
2021/08/15 04:14:07;;;;;;;21.3;19;;;;;;;18.46;100;95292.46;;;;
2021/08/15 04:15:07;;;;;;;21.3;19;;;;;;;18.46;100;95292.46;;;;
2021/08/15 04:16:09;;;;;;;21.3;19;;;;;;;18.46;100;95292.46;;;;
2021/08/15 04:17:09;;;;;;;21.3;19;;;;;;;18.46;100;95292.46;;;;
2021/08/15 04:18:10;;;;;;;21.3;19;;;;;;;18.46;100;95292.46;;;;
2021/08/15 04:19:10;;;;;;;21.3;19;;;;;;;18.46;100;95292.46;;;;
2021/08/15 04:20:11;;;;;;;22.55;19.75;;;;;;;18.47;100;95294.1;;;;
2021/08/15 04:21:13;;;;;;;22.55;19.75;;;;;;;18.47;100;95294.1;;;;
2021/08/15 04:22:13;;;;;;;22.55;19.75;;;;;;;18.47;100;95294.1;;;;
2021/08/15 04:23:14;;;;;;;22.55;19.75;;;;;;;18.47;100;95294.1;;;;
2021/08/15 04:24:14;;;;;;;22.55;19.75;;;;;;;18.47;100;95294.1;;;;
2021/08/15 04:25:15;;;;;;;22.55;19.75;;;;;;;18.47;100;95294.1;;;;
2021/08/15 04:26:16;;;;;;;22.55;19.75;;;;;;;18.47;100;95294.1;;;;
2021/08/15 04:27:16;;;;;;;22.55;19.75;;;;;;;18.47;100;95294.1;;;;
2021/08/15 04:28:17;;;;;;;22.55;19.75;;;;;;;18.47;100;95294.1;;;;
2021/08/15 04:29:18;;;;;;;22.55;19.75;;;;;;;18.47;100;95294.1;;;;
2021/08/15 04:30:18;;;;;;;24;20;;;;;;;18.47;100;95286.85;;;;
2021/08/15 04:31:19;;;;;;;24;20;;;;;;;18.47;100;95286.85;;;;
2021/08/15 04:32:20;;;;;;;24;20;;;;;;;18.47;100;95286.85;;;;
2021/08/15 04:33:21;;;;;;;24;20;;;;;;;18.47;100;95286.85;;;;
2021/08/15 04:34:22;;;;;;;24;20;;;;;;;18.47;100;95286.85;;;;
2021/08/15 04:35:22;;;;;;;24;20;;;;;;;18.47;100;95286.85;;;;
2021/08/15 04:36:23;;;;;;;24;20;;;;;;;18.47;100;95286.85;;;;
2021/08/15 04:37:24;;;;;;;24;20;;;;;;;18.47;100;95286.85;;;;
2021/08/15 04:38:25;;;;;;;24;20;;;;;;;18.47;100;95286.85;;;;
2021/08/15 04:39:25;;;;;;;24;20;;;;;;;18.47;100;95286.85;;;;
2021/08/15 04:40:26;;;;;;;24;20;;;;;;;18.47;100;95286.85;;;;
2021/08/15 04:41:26;;;;;;;23.55;20.25;;;;;;;18.48;100;95286.15;;;;
2021/08/15 04:42:27;;;;;;;23.55;20.25;;;;;;;18.48;100;95286.15;;;;
2021/08/15 04:43:27;;;;;;;23.55;20.25;;;;;;;18.48;100;95286.15;;;;
2021/08/15 04:44:28;;;;;;;23.55;20.25;;;;;;;18.48;100;95286.15;;;;
2021/08/15 04:45:29;;;;;;;23.55;20.25;;;;;;;18.48;100;95286.15;;;;
2021/08/15 04:46:29;;;;;;;23.55;20.25;;;;;;;18.48;100;95286.15;;;;
2021/08/15 04:47:30;;;;;;;23.55;20.25;;;;;;;18.48;100;95286.15;;;;
2021/08/15 04:48:30;;;;;;;23.55;20.25;;;;;;;18.48;100;95286.15;;;;
2021/08/15 04:49:31;;;;;;;23.55;20.25;;;;;;;18.48;100;95286.15;;;;
2021/08/15 04:50:31;;;;;;;23.55;20.25;;;;;;;18.48;100;95286.15;;;;
2021/08/15 04:51:32;;;;;;;24.05;19.95;;;;;;;18.54;100;95288.58;;;;
2021/08/15 04:52:33;;;;;;;24.05;19.95;;;;;;;18.54;100;95288.58;;;;
2021/08/15 04:53:33;;;;;;;24.05;19.95;;;;;;;18.54;100;95288.58;;;;
2021/08/15 04:54:34;;;;;;;24.05;19.95;;;;;;;18.54;100;95288.58;;;;
2021/08/15 04:55:35;;;;;;;24.05;19.95;;;;;;;18.54;100;95288.58;;;;
2021/08/15 04:56:36;;;;;;;24.05;19.95;;;;;;;18.54;100;95288.58;;;;
2021/08/15 04:57:36;;;;;;;24.05;19.95;;;;;;;18.54;100;95288.58;;;;
2021/08/15 04:58:37;;;;;;;24.05;19.95;;;;;;;18.54;100;95288.58;;;;
2021/08/15 04:59:37;;;;;;;24.05;19.95;;;;;;;18.54;100;95288.58;;;;
2021/08/15 05:00:38;;;;;;;24.05;19.95;;;;;;;18.54;100;95288.58;;;;
2021/08/15 05:01:38;;;;;;;24.05;19.95;;;;;;;18.54;100;95288.58;;;;
2021/08/15 05:02:39;;;;;;;21.8;19.5;;;;;;;18.79;100;95282.08;;;;
2021/08/15 05:03:40;;;;;;;21.8;19.5;;;;;;;18.79;100;95282.08;;;;
2021/08/15 05:04:40;;;;;;;21.8;19.5;;;;;;;18.79;100;95282.08;;;;
2021/08/15 05:05:41;;;;;;;21.8;19.5;;;;;;;18.79;100;95282.08;;;;
2021/08/15 05:06:41;;;;;;;21.8;19.5;;;;;;;18.79;100;95282.08;;;;
2021/08/15 05:07:42;;;;;;;21.8;19.5;;;;;;;18.79;100;95282.08;;;;
2021/08/15 05:08:42;;;;;;;21.8;19.5;;;;;;;18.79;100;95282.08;;;;
2021/08/15 05:09:43;;;;;;;21.8;19.5;;;;;;;18.79;100;95282.08;;;;
2021/08/15 05:10:43;;;;;;;21.8;19.5;;;;;;;18.79;100;95282.08;;;;
2021/08/15 05:11:44;;;;;;;21.8;19.5;;;;;;;18.79;100;95282.08;;;;
2021/08/15 05:12:45;;;;;;;21;18.8;;;;;;;19.04;100;95288.26;;;;
2021/08/15 05:13:45;;;;;;;21;18.8;;;;;;;19.04;100;95288.26;;;;
2021/08/15 05:14:46;;;;;;;21;18.8;;;;;;;19.04;100;95288.26;;;;
2021/08/15 05:15:46;;;;;;;21;18.8;;;;;;;19.04;100;95288.26;;;;
2021/08/15 05:16:47;;;;;;;21;18.8;;;;;;;19.04;100;95288.26;;;;
2021/08/15 05:17:47;;;;;;;21;18.8;;;;;;;19.04;100;95288.26;;;;
2021/08/15 05:18:48;;;;;;;21;18.8;;;;;;;19.04;100;95288.26;;;;
2021/08/15 05:19:49;;;;;;;21;18.8;;;;;;;19.04;100;95288.26;;;;
2021/08/15 05:20:49;;;;;;;21;18.8;;;;;;;19.04;100;95288.26;;;;
2021/08/15 05:21:50;;;;;;;21;18.8;;;;;;;19.04;100;95288.26;;;;
2021/08/15 05:22:50;;;;;;;21;18.8;;;;;;;19.04;100;95288.26;;;;
2021/08/15 05:23:51;;;;;;;19.95;17.3;;;;;;;19.38;100;95299.04;;;;
2021/08/15 05:24:51;;;;;;;19.95;17.3;;;;;;;19.38;100;95299.04;;;;
2021/08/15 05:25:52;;;;;;;19.95;17.3;;;;;;;19.38;100;95299.04;;;;
2021/08/15 05:26:53;;;;;;;19.95;17.3;;;;;;;19.38;100;95299.04;;;;
2021/08/15 05:27:53;;;;;;;19.95;17.3;;;;;;;19.38;100;95299.04;;;;
2021/08/15 05:28:54;;;;;;;19.95;17.3;;;;;;;19.38;100;95299.04;;;;
2021/08/15 05:29:54;;;;;;;19.95;17.3;;;;;;;19.38;100;95299.04;;;;
2021/08/15 05:30:55;;;;;;;19.95;17.3;;;;;;;19.38;100;95299.04;;;;
2021/08/15 05:31:57;;;;;;;19.95;17.3;;;;;;;19.38;100;95299.04;;;;
2021/08/15 05:32:57;;;;;;;19.95;17.3;;;;;;;19.38;100;95299.04;;;;
2021/08/15 05:33:58;;;;;;;19.95;17.3;;;;;;;19.38;100;95299.04;;;;
2021/08/15 05:34:58;;;;;;;19.95;17.3;;;;;;;19.38;100;95299.04;;;;
2021/08/15 05:35:59;;;;;;;19.95;17.3;;;;;;;19.38;100;95299.04;;;;
2021/08/15 05:37:00;;;;;;;19.95;17.3;;;;;;;19.38;100;95299.04;;;;
2021/08/15 05:38:00;;;;;;;19.95;17.3;;;;;;;19.38;100;95299.04;;;;
2021/08/15 05:39:01;;;;;;;19.95;17.3;;;;;;;19.38;100;95299.04;;;;
2021/08/15 05:40:01;;;;;;;19.95;17.3;;;;;;;19.38;100;95299.04;;;;
2021/08/15 05:41:02;;;;;;;19.95;17.3;;;;;;;19.38;100;95299.04;;;;
2021/08/15 05:42:03;;;;;;;19.95;17.3;;;;;;;19.38;100;95299.04;;;;
2021/08/15 05:43:03;;;;;;;19.95;17.3;;;;;;;19.38;100;95299.04;;;;
2021/08/15 05:44:04;;;;;;;19.95;17.3;;;;;;;19.38;100;95299.04;;;;
2021/08/15 05:45:05;;;;;;;19.35;17.25;;;;;;;20.23;100;95304.6;;;;
2021/08/15 05:46:07;;;;;;;19.35;17.25;;;;;;;20.23;100;95304.6;;;;
2021/08/15 05:47:08;;;;;;;19.35;17.25;;;;;;;20.23;100;95304.6;;;;
2021/08/15 05:48:09;;;;;;;19.35;17.25;;;;;;;20.23;100;95304.6;;;;
2021/08/15 05:49:09;;;;;;;19.35;17.25;;;;;;;20.23;100;95304.6;;;;
2021/08/15 05:50:10;;;;;;;19.35;17.25;;;;;;;20.23;100;95304.6;;;;
2021/08/15 05:51:11;;;;;;;19.35;17.25;;;;;;;20.23;100;95304.6;;;;
2021/08/15 05:52:12;;;;;;;19.35;17.25;;;;;;;20.23;100;95304.6;;;;
2021/08/15 05:53:13;;;;;;;19.35;17.25;;;;;;;20.23;100;95304.6;;;;
2021/08/15 05:54:13;;;;;;;19.35;17.25;;;;;;;20.23;100;95304.6;;;;
2021/08/15 05:55:14;;;;;;;19.35;17.25;;;;;;;20.23;100;95304.6;;;;
2021/08/15 05:56:14;;;;;;;21.35;16.1;;;;;;;20.73;100;95301.92;;;;
2021/08/15 05:57:15;;;;;;;21.35;16.1;;;;;;;20.73;100;95301.92;;;;
2021/08/15 05:58:15;;;;;;;21.35;16.1;;;;;;;20.73;100;95301.92;;;;
2021/08/15 05:59:16;;;;;;;21.35;16.1;;;;;;;20.73;100;95301.92;;;;
2021/08/15 06:00:16;;;;;;;21.35;16.1;;;;;;;20.73;100;95301.92;;;;